Tofteviken — C6ZO5 — position and weather

sailwx.info

Track history (hours):
 
Tides and Currents Weather Stations Pressure Air Temp Water Temp Dewpoint Dewpoint Depression Visibility Wind Speed Wind Dir Waves Ship Positions

Tofteviken

Last reported at 2017-Dec-13 15:29 UTC. Time now 2017-Dec-15 08:20 UTC.
Position N 30°02' W 094°02'.

Length 249 m; draft 9.1 m.

Type: Tanker. MMSI: 311061400.

Date/timePositionNaut miles runAvg speedWind from/ knotsBaromVisibWave heightAir tempDewpointWater temp
2017-Dec-13 15:29N 30°02' W 094°02'0 0.0
2017-Dec-12 11:07N 30°02' W 094°02'0 0.0
2017-Dec-12 10:58N 30°02' W 094°02'2 0.1
2017-Dec-11 16:49N 30°01' W 094°00'1 4.3
2017-Dec-11 16:30N 30°01' W 093°59'6 6.0
2017-Dec-11 15:28N 29°59' W 093°52'8 7.6
2017-Dec-11 14:29N 29°52' W 093°56'3 6.7
2017-Dec-11 14:00N 29°49' W 093°58'4 7.4
2017-Dec-11 13:30N 29°46' W 093°55'4 7.8
2017-Dec-11 13:00N 29°44' W 093°52'5 9.5
2017-Dec-11 12:30N 29°39' W 093°50'612.1
2017-Dec-11 12:00N 29°34' W 093°46'713.1
2017-Dec-11 11:30N 29°30' W 093°41'5 9.7
2017-Dec-11 11:00N 29°25' W 093°41'0 0.6
2017-Dec-11 10:28N 29°25' W 093°42'0 0.0
2017-Dec-11 09:55N 29°25' W 093°42'0 0.0
2017-Dec-11 09:28N 29°25' W 093°42'0 0.0
2017-Dec-11 08:55N 29°25' W 093°42'0 0.0
2017-Dec-11 08:28N 29°25' W 093°42'0 0.1
2017-Dec-11 07:58N 29°25' W 093°41'  
2017-Dec-04 10:24N 27°50' W 097°30'0 0.0
2017-Dec-04 10:00N 27°50' W 097°30'0 0.0
2017-Dec-04 09:30N 27°50' W 097°30'0 0.0
2017-Dec-04 03:24N 27°50' W 097°30'0 0.0
2017-Dec-04 02:48N 27°50' W 097°30'0 0.0
2017-Dec-04 02:30N 27°50' W 097°30'0 0.0
2017-Dec-04 01:48N 27°50' W 097°30'  
Track history (hours):
 
Tides and Currents Weather Stations Pressure Air Temp Water Temp Dewpoint Dewpoint Depression Visibility Wind Speed Wind Dir Waves Ship Positions

Tofteviken

Last reported at 2017-Dec-13 15:29 UTC. Time now 2017-Dec-15 08:20 UTC.
Position N 30°02' W 094°02'.

Length 249 m; draft 9.1 m.

Type: Tanker. MMSI: 311061400.

Date/timePositionNaut miles runAvg speedWind from/ knotsBaromVisibWave heightAir tempDewpointWater temp
2017-Dec-13 15:29N 30°02' W 094°02'0 0.0
2017-Dec-12 11:07N 30°02' W 094°02'0 0.0
2017-Dec-12 10:58N 30°02' W 094°02'2 0.1
2017-Dec-11 16:49N 30°01' W 094°00'1 4.3
2017-Dec-11 16:30N 30°01' W 093°59'6 6.0
2017-Dec-11 15:28N 29°59' W 093°52'8 7.6
2017-Dec-11 14:29N 29°52' W 093°56'3 6.7
2017-Dec-11 14:00N 29°49' W 093°58'4 7.4
2017-Dec-11 13:30N 29°46' W 093°55'4 7.8
2017-Dec-11 13:00N 29°44' W 093°52'5 9.5
2017-Dec-11 12:30N 29°39' W 093°50'612.1
2017-Dec-11 12:00N 29°34' W 093°46'713.1
2017-Dec-11 11:30N 29°30' W 093°41'5 9.7
2017-Dec-11 11:00N 29°25' W 093°41'0 0.6
2017-Dec-11 10:28N 29°25' W 093°42'0 0.0
2017-Dec-11 09:55N 29°25' W 093°42'0 0.0
2017-Dec-11 09:28N 29°25' W 093°42'0 0.0
2017-Dec-11 08:55N 29°25' W 093°42'0 0.0
2017-Dec-11 08:28N 29°25' W 093°42'0 0.1
2017-Dec-11 07:58N 29°25' W 093°41'  
2017-Dec-04 10:24N 27°50' W 097°30'0 0.0
2017-Dec-04 10:00N 27°50' W 097°30'0 0.0
2017-Dec-04 09:30N 27°50' W 097°30'0 0.0
2017-Dec-04 03:24N 27°50' W 097°30'0 0.0
2017-Dec-04 02:48N 27°50' W 097°30'0 0.0
2017-Dec-04 02:30N 27°50' W 097°30'0 0.0
2017-Dec-04 01:48N 27°50' W 097°30'  

Dump ship's entire track history